Braidwood, Australia
Current Conditions -  °F | °C
As of 3:00 PM on Saturday 20 Dec 2014 (Local Time) from YSCB Reporting Station
Clear Clear  
Wind Chill: 77°   Ceiling: Unl
Heat Index: 78°   Visibility: 6mi
Dew Point: 48°   Wind: 6mph
Humidity: 36%   Direction: 310°NW
Pressure: 29.97"   Gusts: NA
Location:  35.44°S, 149.8°E
Report Text: YSCB 200400Z 31005KT CAVOK 25/09 Q1015
Loading
Personal Weather Stations






























Interactive Weather Map New forecast layout! Learn more

10-Day Weather Forecast

Advertisements
Track Severe Weather on mobile